Airfield :
LOGIN :

Register | Disclaimer

   EN    FR    IT 

 










Legend :    VFR   Marginal VFR   IFR   Intensive IFR   Very Intensive IFR
Visi :
Ceiling :
>= 8 km
>= 3000ft
5 to 8 km
1000 to 3000 ft
1500m to 5 km
500 to 1000 ft
800 to 1500m
200 to 500 ft
< 800m
< 200 ft
Symbols :   Thunderstorms  Fog  Heavy snow  Heavy precipitations  Wind > 20 kt
SIGMETs :     Misc.  Thunderstorms  Icing  Turbulence  Mountain Waves  Volcanic Ashes






- Airport Elevation : 83 ft
- IATA code : LHR


EGLL - London Heathrow

CURRENT METAR :
  • 020550Z AUTO 03005KT 340V070 9999 NCD 13/10 Q1022

EXPIRED METARs :
  • 020520Z AUTO 36005KT 330V040 9999 NCD 13/10 Q1021 NOSIG
  • 020450Z AUTO VRB03KT 9999 NCD 12/09 Q1021 NOSIG
  • 020420Z AUTO VRB03KT 9999 NCD 12/09 Q1021 NOSIG
  • 020350Z AUTO 36004KT 330V040 9999 NCD 13/09 Q1021 NOSIG
  • 020320Z AUTO 01005KT 9999 NCD 13/09 Q1021

TAF TAF EGLL
Valid from the 02 at 06:00 until the 03 at 12:00 UTC


020452Z 0206/0312 34005KT CAVOK
PROB30
TEMPO 0306/0312 8000 SHRA BKN014



MET'MAP, your aeronautical weather chart ! - Copyright ORBIFLY December 2007 - Disclaimer

ORBIFLY MET'MAP TEAM :

Programming & Development : Alexandra Zaïnal
Concept & original design : Baudouin d'Aumeries
Assistance for programming : Marc-Olivier Méhu
Technical & hardware support : Manuel Goepfert

Contact : metmap@orbifly.com




SOURCES & CREDITS :

   NOAA